sensor_id;sensor_type;location;lat;lon;timestamp;temperature;humidity
9861;DHT22;4969;52.304;4.968;2023-12-20T00:01:44;8.43;76.43
9861;DHT22;4969;52.304;4.968;2023-12-20T00:04:11;8.79;76.77
9861;DHT22;4969;52.304;4.968;2023-12-20T00:06:37;9.20;79.57
9861;DHT22;4969;52.304;4.968;2023-12-20T00:09:04;8.72;75.50
9861;DHT22;4969;52.304;4.968;2023-12-20T00:11:30;9.07;77.07
9861;DHT22;4969;52.304;4.968;2023-12-20T00:13:58;8.89;77.90
9861;DHT22;4969;52.304;4.968;2023-12-20T00:16:25;9.03;76.48
9861;DHT22;4969;52.304;4.968;2023-12-20T00:18:51;8.79;75.27
9861;DHT22;4969;52.304;4.968;2023-12-20T00:21:18;8.75;78.31
9861;DHT22;4969;52.304;4.968;2023-12-20T00:23:45;8.72;76.23
9861;DHT22;4969;52.304;4.968;2023-12-20T00:26:11;8.67;78.04
9861;DHT22;4969;52.304;4.968;2023-12-20T00:28:38;9.09;79.59
9861;DHT22;4969;52.304;4.968;2023-12-20T00:31:06;9.12;75.98
9861;DHT22;4969;52.304;4.968;2023-12-20T00:33:32;8.91;76.13
9861;DHT22;4969;52.304;4.968;2023-12-20T00:35:59;9.03;80.12
9861;DHT22;4969;52.304;4.968;2023-12-20T00:38:25;8.93;77.64
9861;DHT22;4969;52.304;4.968;2023-12-20T00:40:52;8.99;77.38
9861;DHT22;4969;52.304;4.968;2023-12-20T00:43:18;9.61;78.41
9861;DHT22;4969;52.304;4.968;2023-12-20T00:45:45;9.68;74.42
9861;DHT22;4969;52.304;4.968;2023-12-20T00:48:13;9.75;77.75
9861;DHT22;4969;52.304;4.968;2023-12-20T00:50:39;9.59;74.77
9861;DHT22;4969;52.304;4.968;2023-12-20T00:53:06;9.41;75.59
9861;DHT22;4969;52.304;4.968;2023-12-20T00:55:32;8.98;75.00
9861;DHT22;4969;52.304;4.968;2023-12-20T00:57:59;9.26;76.40
9861;DHT22;4969;52.304;4.968;2023-12-20T01:00:25;9.02;75.54
9861;DHT22;4969;52.304;4.968;2023-12-20T01:02:52;8.89;75.32
9861;DHT22;4969;52.304;4.968;2023-12-20T01:05:20;9.20;77.98
9861;DHT22;4969;52.304;4.968;2023-12-20T01:07:48;8.98;76.57
9861;DHT22;4969;52.304;4.968;2023-12-20T01:10:15;9.33;76.81
9861;DHT22;4969;52.304;4.968;2023-12-20T01:12:43;9.07;74.85
9861;DHT22;4969;52.304;4.968;2023-12-20T01:15:10;9.15;75.96
9861;DHT22;4969;52.304;4.968;2023-12-20T01:17:36;8.93;74.93
9861;DHT22;4969;52.304;4.968;2023-12-20T01:20:03;9.17;75.30
9861;DHT22;4969;52.304;4.968;2023-12-20T01:22:31;9.09;74.15
9861;DHT22;4969;52.304;4.968;2023-12-20T01:24:59;9.16;75.19
9861;DHT22;4969;52.304;4.968;2023-12-20T01:27:27;9.31;75.29
9861;DHT22;4969;52.304;4.968;2023-12-20T01:29:54;9.13;75.69
9861;DHT22;4969;52.304;4.968;2023-12-20T01:32:20;8.91;76.49
9861;DHT22;4969;52.304;4.968;2023-12-20T01:34:47;9.34;73.89
9861;DHT22;4969;52.304;4.968;2023-12-20T01:37:14;9.13;76.40
9861;DHT22;4969;52.304;4.968;2023-12-20T01:39:42;9.10;76.78
9861;DHT22;4969;52.304;4.968;2023-12-20T01:42:08;9.50;75.27
9861;DHT22;4969;52.304;4.968;2023-12-20T01:44:35;9.31;75.69
9861;DHT22;4969;52.304;4.968;2023-12-20T01:47:01;9.40;75.64
9861;DHT22;4969;52.304;4.968;2023-12-20T01:49:28;9.45;76.90
9861;DHT22;4969;52.304;4.968;2023-12-20T01:51:55;9.22;75.24
9861;DHT22;4969;52.304;4.968;2023-12-20T01:54:22;9.10;75.65
9861;DHT22;4969;52.304;4.968;2023-12-20T01:56:50;9.43;77.77
9861;DHT22;4969;52.304;4.968;2023-12-20T01:59:18;9.66;74.76
9861;DHT22;4969;52.304;4.968;2023-12-20T02:01:45;9.48;75.86
9861;DHT22;4969;52.304;4.968;2023-12-20T02:04:11;9.41;76.27
9861;DHT22;4969;52.304;4.968;2023-12-20T02:06:39;9.45;75.00
9861;DHT22;4969;52.304;4.968;2023-12-20T02:09:06;10.26;77.74
9861;DHT22;4969;52.304;4.968;2023-12-20T02:11:34;9.68;72.79
9861;DHT22;4969;52.304;4.968;2023-12-20T02:14:03;9.73;74.95
9861;DHT22;4969;52.304;4.968;2023-12-20T02:16:30;9.61;73.95
9861;DHT22;4969;52.304;4.968;2023-12-20T02:18:56;9.96;73.87
9861;DHT22;4969;52.304;4.968;2023-12-20T02:21:31;10.00;73.31
9861;DHT22;4969;52.304;4.968;2023-12-20T02:23:58;9.65;78.13
9861;DHT22;4969;52.304;4.968;2023-12-20T02:26:24;9.51;73.44
9861;DHT22;4969;52.304;4.968;2023-12-20T02:28:51;9.16;74.72
9861;DHT22;4969;52.304;4.968;2023-12-20T02:31:20;8.98;75.46
9861;DHT22;4969;52.304;4.968;2023-12-20T02:33:47;9.75;73.94
9861;DHT22;4969;52.304;4.968;2023-12-20T02:36:13;9.68;75.04
9861;DHT22;4969;52.304;4.968;2023-12-20T02:38:41;9.75;74.93
9861;DHT22;4969;52.304;4.968;2023-12-20T02:41:08;9.71;73.44
9861;DHT22;4969;52.304;4.968;2023-12-20T02:43:34;9.38;74.68
9861;DHT22;4969;52.304;4.968;2023-12-20T02:46:01;9.28;74.25
9861;DHT22;4969;52.304;4.968;2023-12-20T02:48:27;9.15;74.32
9861;DHT22;4969;52.304;4.968;2023-12-20T02:50:54;9.85;82.16
9861;DHT22;4969;52.304;4.968;2023-12-20T02:53:21;9.23;73.97
9861;DHT22;4969;52.304;4.968;2023-12-20T02:55:48;9.20;75.59
9861;DHT22;4969;52.304;4.968;2023-12-20T02:58:15;9.16;74.68
9861;DHT22;4969;52.304;4.968;2023-12-20T03:00:43;9.34;75.67
9861;DHT22;4969;52.304;4.968;2023-12-20T03:03:09;9.13;74.57
9861;DHT22;4969;52.304;4.968;2023-12-20T03:05:36;9.19;73.96
9861;DHT22;4969;52.304;4.968;2023-12-20T03:08:02;9.22;73.99
9861;DHT22;4969;52.304;4.968;2023-12-20T03:10:29;9.37;73.19
9861;DHT22;4969;52.304;4.968;2023-12-20T03:12:57;9.09;75.79
9861;DHT22;4969;52.304;4.968;2023-12-20T03:15:23;9.58;74.45
9861;DHT22;4969;52.304;4.968;2023-12-20T03:17:50;9.22;73.96
9861;DHT22;4969;52.304;4.968;2023-12-20T03:20:16;9.33;76.08
9861;DHT22;4969;52.304;4.968;2023-12-20T03:22:43;8.95;74.29
9861;DHT22;4969;52.304;4.968;2023-12-20T03:25:09;8.73;75.10
9861;DHT22;4969;52.304;4.968;2023-12-20T03:27:37;8.95;76.33
9861;DHT22;4969;52.304;4.968;2023-12-20T03:30:06;8.93;75.22
9861;DHT22;4969;52.304;4.968;2023-12-20T03:32:33;9.64;83.96
9861;DHT22;4969;52.304;4.968;2023-12-20T03:34:59;9.16;73.46
9861;DHT22;4969;52.304;4.968;2023-12-20T03:37:26;8.88;75.22
9861;DHT22;4969;52.304;4.968;2023-12-20T03:39:52;8.82;75.14
9861;DHT22;4969;52.304;4.968;2023-12-20T03:42:19;8.64;75.80
9861;DHT22;4969;52.304;4.968;2023-12-20T03:44:45;8.96;76.52
9861;DHT22;4969;52.304;4.968;2023-12-20T03:47:13;8.81;75.47
9861;DHT22;4969;52.304;4.968;2023-12-20T03:49:40;9.16;76.68
9861;DHT22;4969;52.304;4.968;2023-12-20T03:52:06;9.20;76.31
9861;DHT22;4969;52.304;4.968;2023-12-20T03:54:34;8.84;75.26
9861;DHT22;4969;52.304;4.968;2023-12-20T03:57:01;9.16;75.20
9861;DHT22;4969;52.304;4.968;2023-12-20T03:59:27;9.36;80.09
9861;DHT22;4969;52.304;4.968;2023-12-20T04:01:54;9.05;76.72
9861;DHT22;4969;52.304;4.968;2023-12-20T04:04:22;9.38;74.15
9861;DHT22;4969;52.304;4.968;2023-12-20T04:06:48;9.26;74.85
9861;DHT22;4969;52.304;4.968;2023-12-20T04:09:15;9.40;75.00
9861;DHT22;4969;52.304;4.968;2023-12-20T04:11:42;9.30;75.80
9861;DHT22;4969;52.304;4.968;2023-12-20T04:14:09;9.91;77.04
9861;DHT22;4969;52.304;4.968;2023-12-20T04:16:35;9.41;77.30
9861;DHT22;4969;52.304;4.968;2023-12-20T04:19:02;9.27;74.14
9861;DHT22;4969;52.304;4.968;2023-12-20T04:21:30;8.89;74.88
9861;DHT22;4969;52.304;4.968;2023-12-20T04:23:56;9.95;77.32
9861;DHT22;4969;52.304;4.968;2023-12-20T04:26:23;9.75;74.45
9861;DHT22;4969;52.304;4.968;2023-12-20T04:28:49;9.41;72.79
9861;DHT22;4969;52.304;4.968;2023-12-20T04:31:16;9.54;78.50
9861;DHT22;4969;52.304;4.968;2023-12-20T04:33:43;8.81;74.75
9861;DHT22;4969;52.304;4.968;2023-12-20T04:36:09;9.06;75.27
9861;DHT22;4969;52.304;4.968;2023-12-20T04:38:37;9.17;78.93
9861;DHT22;4969;52.304;4.968;2023-12-20T04:41:04;9.33;74.12
9861;DHT22;4969;52.304;4.968;2023-12-20T04:43:30;9.16;74.58
9861;DHT22;4969;52.304;4.968;2023-12-20T04:45:57;9.50;76.72
9861;DHT22;4969;52.304;4.968;2023-12-20T04:48:23;9.12;73.71
9861;DHT22;4969;52.304;4.968;2023-12-20T04:50:50;9.13;75.97
9861;DHT22;4969;52.304;4.968;2023-12-20T04:53:16;9.68;76.56
9861;DHT22;4969;52.304;4.968;2023-12-20T04:55:44;9.09;75.33
9861;DHT22;4969;52.304;4.968;2023-12-20T04:58:11;9.06;74.68
9861;DHT22;4969;52.304;4.968;2023-12-20T05:00:37;8.88;76.24
9861;DHT22;4969;52.304;4.968;2023-12-20T05:03:04;9.33;75.65
9861;DHT22;4969;52.304;4.968;2023-12-20T05:05:31;9.79;76.40
9861;DHT22;4969;52.304;4.968;2023-12-20T05:07:57;9.22;73.68
9861;DHT22;4969;52.304;4.968;2023-12-20T05:10:24;9.09;74.32
9861;DHT22;4969;52.304;4.968;2023-12-20T05:12:52;9.38;73.55
9861;DHT22;4969;52.304;4.968;2023-12-20T05:15:19;9.51;74.48
9861;DHT22;4969;52.304;4.968;2023-12-20T05:17:45;9.48;74.44
9861;DHT22;4969;52.304;4.968;2023-12-20T05:20:12;9.22;74.54
9861;DHT22;4969;52.304;4.968;2023-12-20T05:22:38;9.00;76.46
9861;DHT22;4969;52.304;4.968;2023-12-20T05:25:05;9.30;75.32
9861;DHT22;4969;52.304;4.968;2023-12-20T05:27:33;9.47;75.97
9861;DHT22;4969;52.304;4.968;2023-12-20T05:30:01;9.41;73.46
9861;DHT22;4969;52.304;4.968;2023-12-20T05:32:27;9.30;74.77
9861;DHT22;4969;52.304;4.968;2023-12-20T05:34:54;9.59;75.13
9861;DHT22;4969;52.304;4.968;2023-12-20T05:37:20;9.55;76.63
9861;DHT22;4969;52.304;4.968;2023-12-20T05:39:47;9.41;73.79
9861;DHT22;4969;52.304;4.968;2023-12-20T05:42:13;9.36;74.33
9861;DHT22;4969;52.304;4.968;2023-12-20T05:44:40;9.68;75.21
9861;DHT22;4969;52.304;4.968;2023-12-20T05:47:08;9.69;75.82
9861;DHT22;4969;52.304;4.968;2023-12-20T05:49:34;9.66;73.12
9861;DHT22;4969;52.304;4.968;2023-12-20T05:52:01;9.55;73.35
9861;DHT22;4969;52.304;4.968;2023-12-20T05:54:27;10.10;74.03
9861;DHT22;4969;52.304;4.968;2023-12-20T05:56:54;9.91;74.15
9861;DHT22;4969;52.304;4.968;2023-12-20T05:59:20;9.66;73.11
9861;DHT22;4969;52.304;4.968;2023-12-20T06:01:47;9.78;74.19
9861;DHT22;4969;52.304;4.968;2023-12-20T06:04:15;10.12;71.91
9861;DHT22;4969;52.304;4.968;2023-12-20T06:06:42;10.36;74.38
9861;DHT22;4969;52.304;4.968;2023-12-20T06:09:09;9.65;72.53
9861;DHT22;4969;52.304;4.968;2023-12-20T06:11:35;9.85;73.19
9861;DHT22;4969;52.304;4.968;2023-12-20T06:14:02;10.10;73.60
9861;DHT22;4969;52.304;4.968;2023-12-20T06:16:28;9.99;73.77
9861;DHT22;4969;52.304;4.968;2023-12-20T06:18:55;9.75;72.79
9861;DHT22;4969;52.304;4.968;2023-12-20T06:21:23;9.85;72.43
9861;DHT22;4969;52.304;4.968;2023-12-20T06:23:49;9.93;73.60
9861;DHT22;4969;52.304;4.968;2023-12-20T06:26:16;9.72;74.84
9861;DHT22;4969;52.304;4.968;2023-12-20T06:28:42;9.54;73.06
9861;DHT22;4969;52.304;4.968;2023-12-20T06:31:09;10.03;76.48
9861;DHT22;4969;52.304;4.968;2023-12-20T06:33:36;10.21;73.12
9861;DHT22;4969;52.304;4.968;2023-12-20T06:36:03;9.99;73.77
9861;DHT22;4969;52.304;4.968;2023-12-20T06:38:31;9.81;74.08
9861;DHT22;4969;52.304;4.968;2023-12-20T06:40:57;9.57;73.72
9861;DHT22;4969;52.304;4.968;2023-12-20T06:43:24;9.77;74.56
9861;DHT22;4969;52.304;4.968;2023-12-20T06:45:51;9.86;74.61
9861;DHT22;4969;52.304;4.968;2023-12-20T06:48:17;9.57;75.32
9861;DHT22;4969;52.304;4.968;2023-12-20T06:50:44;9.64;74.27
9861;DHT22;4969;52.304;4.968;2023-12-20T06:53:10;9.69;73.69
9861;DHT22;4969;52.304;4.968;2023-12-20T06:55:38;9.62;74.12
9861;DHT22;4969;52.304;4.968;2023-12-20T06:58:05;9.64;73.63
9861;DHT22;4969;52.304;4.968;2023-12-20T07:00:32;9.44;75.54
9861;DHT22;4969;52.304;4.968;2023-12-20T07:02:58;9.72;76.37
9861;DHT22;4969;52.304;4.968;2023-12-20T07:05:25;9.65;74.69
9861;DHT22;4969;52.304;4.968;2023-12-20T07:07:52;9.96;75.82
9861;DHT22;4969;52.304;4.968;2023-12-20T07:10:18;10.28;73.93
9861;DHT22;4969;52.304;4.968;2023-12-20T07:12:46;9.83;73.44
9861;DHT22;4969;52.304;4.968;2023-12-20T07:15:14;9.86;74.03
9861;DHT22;4969;52.304;4.968;2023-12-20T07:17:40;9.72;74.80
9861;DHT22;4969;52.304;4.968;2023-12-20T07:20:08;9.83;75.17
9861;DHT22;4969;52.304;4.968;2023-12-20T07:22:36;10.12;77.47
9861;DHT22;4969;52.304;4.968;2023-12-20T07:25:02;9.98;76.13
9861;DHT22;4969;52.304;4.968;2023-12-20T07:27:29;9.85;74.55
9861;DHT22;4969;52.304;4.968;2023-12-20T07:29:57;9.88;73.75
9861;DHT22;4969;52.304;4.968;2023-12-20T07:32:24;10.36;77.52
9861;DHT22;4969;52.304;4.968;2023-12-20T07:34:50;10.57;73.78
9861;DHT22;4969;52.304;4.968;2023-12-20T07:37:17;9.57;73.80
9861;DHT22;4969;52.304;4.968;2023-12-20T07:39:43;9.82;74.03
9861;DHT22;4969;52.304;4.968;2023-12-20T07:42:10;9.81;74.17
9861;DHT22;4969;52.304;4.968;2023-12-20T07:44:37;9.47;74.52
9861;DHT22;4969;52.304;4.968;2023-12-20T07:47:05;9.71;75.49
9861;DHT22;4969;52.304;4.968;2023-12-20T07:49:31;9.83;74.15
9861;DHT22;4969;52.304;4.968;2023-12-20T07:51:58;9.64;73.87
9861;DHT22;4969;52.304;4.968;2023-12-20T07:54:25;9.79;74.11
9861;DHT22;4969;52.304;4.968;2023-12-20T07:56:51;9.47;74.65
9861;DHT22;4969;52.304;4.968;2023-12-20T07:59:18;9.37;75.32
9861;DHT22;4969;52.304;4.968;2023-12-20T08:01:44;9.38;75.41
9861;DHT22;4969;52.304;4.968;2023-12-20T08:04:12;9.55;74.77
9861;DHT22;4969;52.304;4.968;2023-12-20T08:06:39;9.31;76.51
9861;DHT22;4969;52.304;4.968;2023-12-20T08:09:05;9.23;75.86
9861;DHT22;4969;52.304;4.968;2023-12-20T08:11:32;9.57;76.59
9861;DHT22;4969;52.304;4.968;2023-12-20T08:13:58;9.91;75.79
9861;DHT22;4969;52.304;4.968;2023-12-20T08:16:25;9.77;74.38
9861;DHT22;4969;52.304;4.968;2023-12-20T08:18:52;9.77;74.32
9861;DHT22;4969;52.304;4.968;2023-12-20T08:21:20;10.20;74.48
9861;DHT22;4969;52.304;4.968;2023-12-20T08:23:47;9.96;75.52
9861;DHT22;4969;52.304;4.968;2023-12-20T08:26:18;10.37;80.18
9861;DHT22;4969;52.304;4.968;2023-12-20T08:28:45;10.21;74.12
9861;DHT22;4969;52.304;4.968;2023-12-20T08:31:13;9.98;73.48
9861;DHT22;4969;52.304;4.968;2023-12-20T08:33:40;9.85;76.20
9861;DHT22;4969;52.304;4.968;2023-12-20T08:36:07;10.05;77.96
9861;DHT22;4969;52.304;4.968;2023-12-20T08:38:34;10.02;73.55
9861;DHT22;4969;52.304;4.968;2023-12-20T08:41:01;10.12;74.86
9861;DHT22;4969;52.304;4.968;2023-12-20T08:43:30;10.00;73.94
9861;DHT22;4969;52.304;4.968;2023-12-20T08:45:56;10.00;73.44
9861;DHT22;4969;52.304;4.968;2023-12-20T08:48:23;10.12;74.05
9861;DHT22;4969;52.304;4.968;2023-12-20T08:50:49;9.83;74.02
9861;DHT22;4969;52.304;4.968;2023-12-20T08:53:17;10.06;76.34
9861;DHT22;4969;52.304;4.968;2023-12-20T08:55:47;9.82;75.50
9861;DHT22;4969;52.304;4.968;2023-12-20T08:58:13;9.86;74.83
9861;DHT22;4969;52.304;4.968;2023-12-20T09:00:40;9.99;74.30
9861;DHT22;4969;52.304;4.968;2023-12-20T09:03:07;10.28;73.89
9861;DHT22;4969;52.304;4.968;2023-12-20T09:05:33;10.21;76.31
9861;DHT22;4969;52.304;4.968;2023-12-20T09:08:00;9.86;74.29
9861;DHT22;4969;52.304;4.968;2023-12-20T09:10:26;10.08;74.74
9861;DHT22;4969;52.304;4.968;2023-12-20T09:12:54;9.96;74.47
9861;DHT22;4969;52.304;4.968;2023-12-20T09:15:22;10.03;74.86
9861;DHT22;4969;52.304;4.968;2023-12-20T09:17:49;10.14;77.66
9861;DHT22;4969;52.304;4.968;2023-12-20T09:20:15;9.93;74.49
9861;DHT22;4969;52.304;4.968;2023-12-20T09:22:42;9.83;75.14
9861;DHT22;4969;52.304;4.968;2023-12-20T09:25:09;10.06;74.19
9861;DHT22;4969;52.304;4.968;2023-12-20T09:27:36;10.09;75.68
9861;DHT22;4969;52.304;4.968;2023-12-20T09:30:05;10.03;74.57
9861;DHT22;4969;52.304;4.968;2023-12-20T09:32:32;10.42;74.49
9861;DHT22;4969;52.304;4.968;2023-12-20T09:34:59;10.20;73.81
9861;DHT22;4969;52.304;4.968;2023-12-20T09:37:26;10.61;76.21
9861;DHT22;4969;52.304;4.968;2023-12-20T09:39:53;10.83;75.05
9861;DHT22;4969;52.304;4.968;2023-12-20T09:42:25;10.61;75.58
9861;DHT22;4969;52.304;4.968;2023-12-20T09:44:58;10.57;75.25
9861;DHT22;4969;52.304;4.968;2023-12-20T09:47:28;10.38;73.19
9861;DHT22;4969;52.304;4.968;2023-12-20T09:49:54;10.09;75.99
9861;DHT22;4969;52.304;4.968;2023-12-20T09:52:22;10.06;73.83
9861;DHT22;4969;52.304;4.968;2023-12-20T09:54:52;10.26;75.02
9861;DHT22;4969;52.304;4.968;2023-12-20T09:57:20;10.09;74.22
9861;DHT22;4969;52.304;4.968;2023-12-20T09:59:46;10.37;74.76
9861;DHT22;4969;52.304;4.968;2023-12-20T10:02:13;10.40;74.45
9861;DHT22;4969;52.304;4.968;2023-12-20T10:04:46;10.76;74.65
9861;DHT22;4969;52.304;4.968;2023-12-20T10:07:13;10.83;79.54
9861;DHT22;4969;52.304;4.968;2023-12-20T10:09:40;10.96;73.02
9861;DHT22;4969;52.304;4.968;2023-12-20T10:12:08;10.17;74.06
9861;DHT22;4969;52.304;4.968;2023-12-20T10:14:34;10.42;75.23
9861;DHT22;4969;52.304;4.968;2023-12-20T10:17:04;10.37;73.98
9861;DHT22;4969;52.304;4.968;2023-12-20T10:19:31;10.79;75.79
9861;DHT22;4969;52.304;4.968;2023-12-20T10:22:00;10.44;72.69
9861;DHT22;4969;52.304;4.968;2023-12-20T10:24:28;10.63;78.92
9861;DHT22;4969;52.304;4.968;2023-12-20T10:27:02;10.75;74.01
9861;DHT22;4969;52.304;4.968;2023-12-20T10:29:32;10.27;72.93
9861;DHT22;4969;52.304;4.968;2023-12-20T10:31:58;10.30;72.92
9861;DHT22;4969;52.304;4.968;2023-12-20T10:34:25;11.04;74.91
9861;DHT22;4969;52.304;4.968;2023-12-20T10:36:52;10.38;72.09
9861;DHT22;4969;52.304;4.968;2023-12-20T10:39:20;10.86;73.61
9861;DHT22;4969;52.304;4.968;2023-12-20T10:41:47;10.36;72.26
9861;DHT22;4969;52.304;4.968;2023-12-20T10:44:14;10.28;73.67
9861;DHT22;4969;52.304;4.968;2023-12-20T10:46:41;10.60;73.32
9861;DHT22;4969;52.304;4.968;2023-12-20T10:49:15;10.48;71.48
9861;DHT22;4969;52.304;4.968;2023-12-20T10:51:44;10.96;75.24
9861;DHT22;4969;52.304;4.968;2023-12-20T10:54:12;11.58;79.22
9861;DHT22;4969;52.304;4.968;2023-12-20T10:56:40;11.27;72.40
9861;DHT22;4969;52.304;4.968;2023-12-20T10:59:08;10.65;71.05
9861;DHT22;4969;52.304;4.968;2023-12-20T11:01:38;11.38;74.24
9861;DHT22;4969;52.304;4.968;2023-12-20T11:04:09;11.00;72.54
9861;DHT22;4969;52.304;4.968;2023-12-20T11:06:46;11.03;74.08
9861;DHT22;4969;52.304;4.968;2023-12-20T11:09:20;10.81;73.46
9861;DHT22;4969;52.304;4.968;2023-12-20T11:12:07;10.67;73.07
9861;DHT22;4969;52.304;4.968;2023-12-20T11:14:41;10.88;72.46
9861;DHT22;4969;52.304;4.968;2023-12-20T11:17:09;10.65;72.22
9861;DHT22;4969;52.304;4.968;2023-12-20T11:19:38;10.81;75.26
9861;DHT22;4969;52.304;4.968;2023-12-20T11:22:04;10.68;75.65
9861;DHT22;4969;52.304;4.968;2023-12-20T11:24:33;10.82;72.10
9861;DHT22;4969;52.304;4.968;2023-12-20T11:27:01;10.60;72.68
9861;DHT22;4969;52.304;4.968;2023-12-20T11:29:31;10.42;73.11
9861;DHT22;4969;52.304;4.968;2023-12-20T11:32:00;10.48;73.00
9861;DHT22;4969;52.304;4.968;2023-12-20T11:34:27;10.24;73.63
9861;DHT22;4969;52.304;4.968;2023-12-20T11:36:58;10.55;74.41
9861;DHT22;4969;52.304;4.968;2023-12-20T11:39:25;10.82;73.46
9861;DHT22;4969;52.304;4.968;2023-12-20T11:41:54;10.82;73.58
9861;DHT22;4969;52.304;4.968;2023-12-20T11:44:23;10.69;72.95
9861;DHT22;4969;52.304;4.968;2023-12-20T11:46:51;10.64;75.92
9861;DHT22;4969;52.304;4.968;2023-12-20T11:49:23;10.57;73.44
9861;DHT22;4969;52.304;4.968;2023-12-20T11:51:49;10.75;73.48
9861;DHT22;4969;52.304;4.968;2023-12-20T11:54:16;10.74;72.72
9861;DHT22;4969;52.304;4.968;2023-12-20T11:56:43;10.27;73.66
9861;DHT22;4969;52.304;4.968;2023-12-20T11:59:09;10.45;73.63
9861;DHT22;4969;52.304;4.968;2023-12-20T12:01:38;10.28;73.98
9861;DHT22;4969;52.304;4.968;2023-12-20T12:04:04;10.49;75.50
9861;DHT22;4969;52.304;4.968;2023-12-20T12:06:31;10.79;75.59
9861;DHT22;4969;52.304;4.968;2023-12-20T12:08:58;10.64;73.64
9861;DHT22;4969;52.304;4.968;2023-12-20T12:11:24;10.76;73.38
9861;DHT22;4969;52.304;4.968;2023-12-20T12:13:51;10.75;73.28
9861;DHT22;4969;52.304;4.968;2023-12-20T12:16:18;10.93;72.77
9861;DHT22;4969;52.304;4.968;2023-12-20T12:18:46;10.60;73.08
9861;DHT22;4969;52.304;4.968;2023-12-20T12:21:18;10.88;79.99
9861;DHT22;4969;52.304;4.968;2023-12-20T12:23:45;10.92;72.32
9861;DHT22;4969;52.304;4.968;2023-12-20T12:26:12;10.81;73.80
9861;DHT22;4969;52.304;4.968;2023-12-20T12:28:40;11.03;75.31
9861;DHT22;4969;52.304;4.968;2023-12-20T12:31:07;10.68;73.16
9861;DHT22;4969;52.304;4.968;2023-12-20T12:33:34;11.14;80.14
9861;DHT22;4969;52.304;4.968;2023-12-20T12:36:03;11.10;72.96
9861;DHT22;4969;52.304;4.968;2023-12-20T12:38:32;10.78;72.96
9861;DHT22;4969;52.304;4.968;2023-12-20T12:40:59;11.26;72.53
9861;DHT22;4969;52.304;4.968;2023-12-20T12:43:26;10.52;73.59
9861;DHT22;4969;52.304;4.968;2023-12-20T12:45:53;10.36;74.35
9861;DHT22;4969;52.304;4.968;2023-12-20T12:48:20;10.58;74.58
9861;DHT22;4969;52.304;4.968;2023-12-20T12:50:48;10.48;74.17
9861;DHT22;4969;52.304;4.968;2023-12-20T12:53:18;10.42;73.77
9861;DHT22;4969;52.304;4.968;2023-12-20T12:55:45;11.06;79.11
9861;DHT22;4969;52.304;4.968;2023-12-20T12:58:11;10.88;72.07
9861;DHT22;4969;52.304;4.968;2023-12-20T13:00:38;10.88;72.54
9861;DHT22;4969;52.304;4.968;2023-12-20T13:03:05;10.47;73.18
9861;DHT22;4969;52.304;4.968;2023-12-20T13:05:31;10.60;75.00
9861;DHT22;4969;52.304;4.968;2023-12-20T13:07:58;10.92;73.89
9861;DHT22;4969;52.304;4.968;2023-12-20T13:10:26;11.13;74.87
9861;DHT22;4969;52.304;4.968;2023-12-20T13:12:52;10.74;73.39
9861;DHT22;4969;52.304;4.968;2023-12-20T13:15:19;10.69;72.71
9861;DHT22;4969;52.304;4.968;2023-12-20T13:17:46;10.47;73.31
9861;DHT22;4969;52.304;4.968;2023-12-20T13:20:12;10.72;73.24
9861;DHT22;4969;52.304;4.968;2023-12-20T13:22:39;10.88;72.97
9861;DHT22;4969;52.304;4.968;2023-12-20T13:25:06;10.47;74.12
9861;DHT22;4969;52.304;4.968;2023-12-20T13:27:34;10.63;77.43
9861;DHT22;4969;52.304;4.968;2023-12-20T13:30:01;10.57;74.28
9861;DHT22;4969;52.304;4.968;2023-12-20T13:32:28;10.93;78.32
9861;DHT22;4969;52.304;4.968;2023-12-20T13:34:55;10.74;74.55
9861;DHT22;4969;52.304;4.968;2023-12-20T13:37:21;10.99;73.12
9861;DHT22;4969;52.304;4.968;2023-12-20T13:39:48;10.74;72.85
9861;DHT22;4969;52.304;4.968;2023-12-20T13:42:15;10.91;73.33
9861;DHT22;4969;52.304;4.968;2023-12-20T13:44:42;10.60;73.55
9861;DHT22;4969;52.304;4.968;2023-12-20T13:47:09;10.57;75.13
9861;DHT22;4969;52.304;4.968;2023-12-20T13:49:35;10.83;78.42
9861;DHT22;4969;52.304;4.968;2023-12-20T13:52:02;11.03;77.24
9861;DHT22;4969;52.304;4.968;2023-12-20T13:54:29;10.78;72.94
9861;DHT22;4969;52.304;4.968;2023-12-20T13:56:56;10.79;78.79
9861;DHT22;4969;52.304;4.968;2023-12-20T13:59:23;10.81;73.60
9861;DHT22;4969;52.304;4.968;2023-12-20T14:01:51;10.71;74.04
9861;DHT22;4969;52.304;4.968;2023-12-20T14:04:17;11.27;79.79
9861;DHT22;4969;52.304;4.968;2023-12-20T14:06:44;10.76;74.22
9861;DHT22;4969;52.304;4.968;2023-12-20T14:09:10;11.21;79.43
9861;DHT22;4969;52.304;4.968;2023-12-20T14:11:38;11.12;73.21
9861;DHT22;4969;52.304;4.968;2023-12-20T14:14:06;10.86;73.82
9861;DHT22;4969;52.304;4.968;2023-12-20T14:16:33;10.54;74.53
9861;DHT22;4969;52.304;4.968;2023-12-20T14:19:01;10.41;77.74
9861;DHT22;4969;52.304;4.968;2023-12-20T14:21:28;10.88;73.98
9861;DHT22;4969;52.304;4.968;2023-12-20T14:23:55;11.26;74.04
9861;DHT22;4969;52.304;4.968;2023-12-20T14:26:21;11.20;74.11
9861;DHT22;4969;52.304;4.968;2023-12-20T14:28:48;11.23;73.15
9861;DHT22;4969;52.304;4.968;2023-12-20T14:31:14;11.07;73.00
9861;DHT22;4969;52.304;4.968;2023-12-20T14:33:41;11.10;75.27
9861;DHT22;4969;52.304;4.968;2023-12-20T14:36:09;11.14;76.03
9861;DHT22;4969;52.304;4.968;2023-12-20T14:38:35;11.10;73.72
9861;DHT22;4969;52.304;4.968;2023-12-20T14:41:03;10.86;73.84
9861;DHT22;4969;52.304;4.968;2023-12-20T14:43:31;11.14;76.95
9861;DHT22;4969;52.304;4.968;2023-12-20T14:45:57;11.02;76.27
9861;DHT22;4969;52.304;4.968;2023-12-20T14:48:24;10.79;77.47
9861;DHT22;4969;52.304;4.968;2023-12-20T14:50:52;10.71;74.82
9861;DHT22;4969;52.304;4.968;2023-12-20T14:53:20;10.36;75.59
9861;DHT22;4969;52.304;4.968;2023-12-20T14:55:47;10.89;78.02
9861;DHT22;4969;52.304;4.968;2023-12-20T14:58:14;10.91;74.91
9861;DHT22;4969;52.304;4.968;2023-12-20T15:00:41;11.12;75.39
9861;DHT22;4969;52.304;4.968;2023-12-20T15:03:08;11.09;76.15
9861;DHT22;4969;52.304;4.968;2023-12-20T15:05:34;11.54;80.52
9861;DHT22;4969;52.304;4.968;2023-12-20T15:08:01;11.62;79.09
9861;DHT22;4969;52.304;4.968;2023-12-20T15:10:29;11.57;75.17
9861;DHT22;4969;52.304;4.968;2023-12-20T15:12:55;11.75;75.51
9861;DHT22;4969;52.304;4.968;2023-12-20T15:15:22;11.37;76.84
9861;DHT22;4969;52.304;4.968;2023-12-20T15:17:49;11.10;74.61
9861;DHT22;4969;52.304;4.968;2023-12-20T15:20:16;11.10;73.30
9861;DHT22;4969;52.304;4.968;2023-12-20T15:22:42;10.97;75.71
9861;DHT22;4969;52.304;4.968;2023-12-20T15:25:11;10.63;75.66
9861;DHT22;4969;52.304;4.968;2023-12-20T15:27:46;10.96;76.42
9861;DHT22;4969;52.304;4.968;2023-12-20T15:30:14;10.96;76.74
9861;DHT22;4969;52.304;4.968;2023-12-20T15:32:41;10.60;76.74
9861;DHT22;4969;52.304;4.968;2023-12-20T15:35:08;11.47;74.84
9861;DHT22;4969;52.304;4.968;2023-12-20T15:37:34;11.85;76.97
9861;DHT22;4969;52.304;4.968;2023-12-20T15:40:01;11.37;73.57
9861;DHT22;4969;52.304;4.968;2023-12-20T15:42:27;11.30;74.70
9861;DHT22;4969;52.304;4.968;2023-12-20T15:44:57;12.19;77.98
9861;DHT22;4969;52.304;4.968;2023-12-20T15:47:24;11.46;76.77
9861;DHT22;4969;52.304;4.968;2023-12-20T15:49:50;11.87;79.61
9861;DHT22;4969;52.304;4.968;2023-12-20T15:52:17;11.52;76.38
9861;DHT22;4969;52.304;4.968;2023-12-20T15:54:44;11.44;76.77
9861;DHT22;4969;52.304;4.968;2023-12-20T15:57:11;11.03;74.96
9861;DHT22;4969;52.304;4.968;2023-12-20T15:59:40;11.16;75.25
9861;DHT22;4969;52.304;4.968;2023-12-20T16:02:08;10.96;79.42
9861;DHT22;4969;52.304;4.968;2023-12-20T16:04:35;11.13;75.63
9861;DHT22;4969;52.304;4.968;2023-12-20T16:07:02;11.21;79.83
9861;DHT22;4969;52.304;4.968;2023-12-20T16:09:29;10.93;75.71